Flight Number: EUR1533 Duration: 1:30
Departure: Barra Airport (EGPR) at 08:15 Distance: 272 Nm
Arrival: Liverpool Airport (EGGP) at 09:45 Equipment: B1900D

Weather Information
404 Not Found

Not Found

The requested URL /data/observations/metar/decoded/EGPR.TXT was not found on this server.


Sunrise: 08:53 Sunset: 16:29 (UTC)

Liverpool Airport , United Kingdom (EGGP) 53-20N 002-51W Jan 21, 2019 - 07:20 AM EST / 2019.01.21 1220 UTC
Wind: from the S (170 degrees) at 6 MPH (5 KT) (direction variable):0
Visibility: greater than 7 mile(s):0
Sky conditions: mostly clear Temperature: 41 F (5 C) Dew Point: 37 F (3 C) Relative Humidity: 86% Pressure (altimeter): 30.09 in. Hg (1019 hPa)
ob: EGGP 211220Z 17005KT 130V200 9999 FEW048 05/03 Q1019 cycle: 12
Sunrise: 08:16 Sunset: 16:29 (UTC)

TAF:2019/01/21 12:09 TAF EGGP 211104Z 2112/2212 17012KT 9999 FEW020 SCT040 PROB30 2112/2115 8000 TEMPO 2119/2123 6000 RA BKN010 PROB40 TEMPO 2119/2123 19015G25KT 4000 +RA BKN007 BECMG 2121/2124 28010KT TEMPO 2122/2209 5000 SHRA BKN014CB PROB30 TEMPO 2122/2124 BKN004 PROB30 TEMPO 2200/2209 27015G27KT 2000 +SHRASN SHGS BKN009 TEMPO 2209/2212 4000 SHRASN BKN010 BKN020CB PROB30 TEMPO 2210/2212 VRB05KT 1400 SHSN BKN004

Previous Pireps for this route
Date Aircraft Flight time Fuel used Landing rate On time
2015-05-09B1900D01.391005-381Charter
2016-02-28B1900D01.12981-386Yes
2016-10-11B1900D01.121066-181No
2018-04-04B1900D1.341188-630Yes
(pireps marked green are flown by you)

Route map